createdAt,value
2018-02-18T00:02:02.572Z,35.90
2018-02-18T00:04:30.125Z,39.90
2018-02-18T00:06:57.641Z,42.57
2018-02-18T00:09:25.206Z,40.30
2018-02-18T00:11:52.768Z,33.70
2018-02-18T00:17:26.955Z,44.90
2018-02-18T00:19:54.520Z,38.53
2018-02-18T00:22:22.049Z,39.97
2018-02-18T00:24:49.559Z,39.93
2018-02-18T00:27:17.114Z,30.30
2018-02-18T00:29:44.651Z,36.53
2018-02-18T00:32:12.937Z,38.13
2018-02-18T00:34:41.251Z,36.00
2018-02-18T00:37:08.768Z,40.37
2018-02-18T00:39:36.320Z,36.33
2018-02-18T00:42:03.847Z,41.73
2018-02-18T00:44:32.168Z,38.30
2018-02-18T00:46:59.683Z,36.10
2018-02-18T00:49:27.200Z,37.77
2018-02-18T00:51:54.751Z,41.90
2018-02-18T00:54:23.034Z,40.43
2018-02-18T00:56:51.349Z,37.47
2018-02-18T00:59:18.874Z,42.13
2018-02-18T01:01:46.419Z,41.73
2018-02-18T01:04:13.933Z,47.13
2018-02-18T01:06:41.488Z,37.10
2018-02-18T01:09:09.035Z,41.53
2018-02-18T01:11:36.543Z,39.20
2018-02-18T01:14:04.101Z,39.90
2018-02-18T01:16:31.628Z,35.63
2018-02-18T01:18:59.220Z,31.80
2018-02-18T01:21:26.733Z,37.67
2018-02-18T01:23:54.265Z,39.63
2018-02-18T01:26:21.814Z,38.50
2018-02-18T01:28:49.331Z,38.50
2018-02-18T01:31:16.875Z,33.97
2018-02-18T01:33:44.388Z,31.00
2018-02-18T01:36:11.936Z,35.63
2018-02-18T01:38:39.460Z,36.63
2018-02-18T01:41:07.776Z,36.30
2018-02-18T01:43:35.324Z,41.20
2018-02-18T01:46:03.600Z,29.47
2018-02-18T01:48:31.916Z,46.17
2018-02-18T01:50:59.452Z,29.63
2018-02-18T01:53:26.971Z,41.90
2018-02-18T01:55:54.520Z,39.07
2018-02-18T01:58:22.055Z,32.07
2018-02-18T02:00:49.604Z,32.10
2018-02-18T02:03:17.123Z,39.20
2018-02-18T02:05:45.440Z,32.40
2018-02-18T02:08:12.993Z,32.53
2018-02-18T02:10:41.287Z,44.03
2018-02-18T02:13:08.845Z,30.83
2018-02-18T02:15:37.143Z,32.30
2018-02-18T02:18:05.496Z,43.60
2018-02-18T02:20:33.020Z,39.33
2018-02-18T02:23:00.580Z,36.83
2018-02-18T02:25:28.876Z,38.20
2018-02-18T02:27:57.184Z,42.80
2018-02-18T02:30:24.713Z,50.67
2018-02-18T02:32:52.264Z,43.10
2018-02-18T02:35:19.781Z,40.73
2018-02-18T02:37:47.349Z,64.97
2018-02-18T02:40:15.629Z,54.17
2018-02-18T02:42:43.915Z,50.13
2018-02-18T02:45:11.469Z,51.10
2018-02-18T02:47:38.989Z,43.07
2018-02-18T02:50:06.545Z,42.23
2018-02-18T02:52:34.828Z,37.60
2018-02-18T02:55:03.148Z,42.13
2018-02-18T02:57:30.677Z,32.70
2018-02-18T02:59:58.221Z,37.27
2018-02-18T03:02:25.744Z,35.40
2018-02-18T03:04:53.316Z,32.67
2018-02-18T03:07:21.612Z,36.33
2018-02-18T03:09:49.140Z,31.97
2018-02-18T03:12:16.692Z,33.10
2018-02-18T03:14:44.208Z,34.97
2018-02-18T03:17:12.537Z,38.67
2018-02-18T03:19:40.104Z,34.17
2018-02-18T03:22:07.667Z,31.40
2018-02-18T03:24:35.192Z,42.27
2018-02-18T03:27:02.748Z,38.60
2018-02-18T03:29:30.304Z,27.53
2018-02-18T03:31:57.824Z,34.03
2018-02-18T03:34:25.367Z,33.13
2018-02-18T03:36:52.876Z,39.67
2018-02-18T03:39:21.220Z,34.83
2018-02-18T03:41:48.736Z,35.43
2018-02-18T03:44:17.106Z,35.50
2018-02-18T03:46:44.630Z,31.27
2018-02-18T03:49:12.179Z,34.83
2018-02-18T03:51:39.699Z,39.57
2018-02-18T03:54:07.268Z,42.57
2018-02-18T03:56:34.821Z,39.97
2018-02-18T03:59:02.347Z,35.57
2018-02-18T04:01:29.893Z,44.00
2018-02-18T04:03:57.416Z,39.20
2018-02-18T04:06:25.745Z,41.03
2018-02-18T04:08:53.302Z,34.47
2018-02-18T04:11:20.824Z,41.70
2018-02-18T04:13:49.616Z,35.13
2018-02-18T04:16:17.148Z,35.07
2018-02-18T04:18:44.665Z,34.23
2018-02-18T04:21:12.225Z,36.10
2018-02-18T04:23:39.740Z,39.07
2018-02-18T04:26:07.290Z,37.07
2018-02-18T04:28:34.844Z,30.50
2018-02-18T04:31:02.356Z,41.33
2018-02-18T04:33:30.663Z,38.13
2018-02-18T04:35:58.188Z,28.77
2018-02-18T04:38:25.736Z,39.77
2018-02-18T04:40:53.253Z,36.97
2018-02-18T04:43:21.574Z,38.17
2018-02-18T04:45:49.095Z,39.63
2018-02-18T04:48:16.648Z,43.23
2018-02-18T04:50:44.178Z,39.50
2018-02-18T04:53:11.723Z,57.73
2018-02-18T04:55:40.008Z,53.33
2018-02-18T04:58:07.561Z,44.47
2018-02-18T05:00:35.080Z,39.13
2018-02-18T05:03:02.624Z,40.90
2018-02-18T05:05:30.138Z,41.30
2018-02-18T05:07:57.712Z,41.57
2018-02-18T05:10:25.234Z,44.90
2018-02-18T05:12:52.753Z,40.93
2018-02-18T05:15:20.309Z,38.70
2018-02-18T05:17:47.833Z,47.30
2018-02-18T05:20:15.404Z,55.67
2018-02-18T05:22:42.916Z,42.23
2018-02-18T05:25:11.241Z,45.87
2018-02-18T05:27:38.756Z,43.37
2018-02-18T05:30:06.305Z,59.10
2018-02-18T05:32:33.864Z,48.67
2018-02-18T05:35:01.392Z,43.47
2018-02-18T05:37:29.712Z,62.13
2018-02-18T05:39:57.236Z,49.00
2018-02-18T05:42:24.792Z,56.13
2018-02-18T05:44:52.316Z,45.80
2018-02-18T05:47:19.873Z,47.07
2018-02-18T05:49:48.160Z,49.83
2018-02-18T05:52:16.472Z,43.07
2018-02-18T05:54:43.992Z,48.60
2018-02-18T05:57:11.558Z,43.30
2018-02-18T05:59:39.880Z,43.27
2018-02-18T06:02:08.188Z,51.17
2018-02-18T06:04:35.716Z,50.13
2018-02-18T06:07:03.267Z,44.20
2018-02-18T06:09:31.588Z,57.53
2018-02-18T06:11:59.116Z,49.43
2018-02-18T06:14:26.680Z,55.03
2018-02-18T06:16:54.204Z,48.00
2018-02-18T06:19:21.769Z,48.73
2018-02-18T06:21:49.299Z,50.80
2018-02-18T06:24:16.816Z,47.60
2018-02-18T06:26:44.372Z,43.13
2018-02-18T06:29:11.931Z,50.63
2018-02-18T06:31:40.237Z,51.80
2018-02-18T06:34:07.784Z,53.13
2018-02-18T06:36:35.305Z,50.13
2018-02-18T06:39:02.860Z,49.70
2018-02-18T06:41:30.380Z,40.40
2018-02-18T06:43:57.940Z,46.27
2018-02-18T06:46:26.224Z,52.27
2018-02-18T06:48:54.541Z,51.27
2018-02-18T06:51:22.067Z,54.87
2018-02-18T06:53:49.612Z,52.73
2018-02-18T06:56:17.906Z,53.83
2018-02-18T06:58:45.463Z,54.77
2018-02-18T07:01:12.990Z,54.23
2018-02-18T07:03:41.441Z,50.20
2018-02-18T07:06:08.961Z,57.33
2018-02-18T07:08:37.280Z,58.53
2018-02-18T07:11:04.837Z,49.73
2018-02-18T07:13:32.354Z,46.70
2018-02-18T07:15:59.908Z,45.60
2018-02-18T07:18:27.432Z,51.50
2018-02-18T07:20:55.756Z,37.93
2018-02-18T07:23:23.284Z,36.90
2018-02-18T07:25:51.600Z,38.10
2018-02-18T07:28:19.128Z,37.77
2018-02-18T07:30:46.677Z,38.80
2018-02-18T07:33:14.216Z,39.33
2018-02-18T07:35:41.728Z,35.50
2018-02-18T07:38:09.278Z,36.23
2018-02-18T07:40:36.785Z,33.60
2018-02-18T07:43:04.332Z,42.67
2018-02-18T07:45:31.852Z,33.07
2018-02-18T07:47:59.399Z,37.43
2018-02-18T07:50:26.921Z,36.43
2018-02-18T07:52:54.468Z,32.47
2018-02-18T07:55:22.752Z,38.50
2018-02-18T07:57:50.298Z,35.43
2018-02-18T08:00:17.828Z,36.57
2018-02-18T08:02:45.376Z,38.40
2018-02-18T08:05:13.664Z,36.10
2018-02-18T08:07:42.001Z,36.53
2018-02-18T08:10:09.530Z,40.47
2018-02-18T08:12:37.880Z,33.50
2018-02-18T08:15:05.396Z,32.50
2018-02-18T08:17:33.687Z,36.53
2018-02-18T08:20:02.092Z,31.07
2018-02-18T08:22:29.621Z,40.80
2018-02-18T08:24:57.185Z,34.60
2018-02-18T08:27:24.701Z,31.20
2018-02-18T08:29:52.294Z,37.27
2018-02-18T08:32:19.864Z,34.60
2018-02-18T08:34:47.390Z,31.53
2018-02-18T08:37:14.951Z,26.53
2018-02-18T08:39:42.472Z,33.60
2018-02-18T08:42:10.026Z,35.57
2018-02-18T08:44:38.324Z,40.93
2018-02-18T08:47:05.890Z,38.93
2018-02-18T08:49:34.176Z,36.53
2018-02-18T08:52:02.504Z,34.50
2018-02-18T08:54:30.029Z,35.47
2018-02-18T08:56:57.588Z,34.97
2018-02-18T08:59:25.151Z,40.40
2018-02-18T09:01:52.713Z,34.83
2018-02-18T09:04:20.261Z,36.63
2018-02-18T09:06:47.831Z,43.90
2018-02-18T09:09:15.362Z,35.87
2018-02-18T09:11:43.712Z,33.10
2018-02-18T09:14:11.240Z,35.90
2018-02-18T09:16:39.532Z,31.03
2018-02-18T09:19:07.868Z,32.03
2018-02-18T09:21:35.393Z,37.00
2018-02-18T09:24:03.712Z,43.20
2018-02-18T09:26:31.251Z,34.03
2018-02-18T09:28:59.573Z,32.90
2018-02-18T09:31:27.097Z,33.50
2018-02-18T09:33:54.656Z,32.63
2018-02-18T09:36:22.216Z,45.57
2018-02-18T09:38:49.740Z,31.40
2018-02-18T09:41:17.292Z,34.23
2018-02-18T09:43:44.863Z,38.53
2018-02-18T09:46:13.152Z,37.07
2018-02-18T09:48:40.680Z,39.30
2018-02-18T09:51:08.228Z,40.67
2018-02-18T09:53:35.748Z,34.33
2018-02-18T09:56:03.300Z,33.43
2018-02-18T09:58:30.824Z,34.13
2018-02-18T10:00:59.144Z,34.47
2018-02-18T10:03:26.758Z,33.00
2018-02-18T10:05:54.302Z,36.97
2018-02-18T10:08:21.829Z,40.57
2018-02-18T10:10:49.393Z,36.43
2018-02-18T10:13:16.915Z,30.33
2018-02-18T10:15:44.500Z,31.60
2018-02-18T10:18:12.088Z,29.10
2018-02-18T10:20:39.616Z,40.60
2018-02-18T10:23:07.208Z,32.13
2018-02-18T10:25:34.734Z,30.00
2018-02-18T10:28:03.049Z,32.30
2018-02-18T10:30:30.607Z,33.07
2018-02-18T10:32:58.888Z,35.63
2018-02-18T10:35:26.440Z,36.00
2018-02-18T10:37:53.964Z,37.23
2018-02-18T10:40:21.516Z,35.90
2018-02-18T10:42:49.037Z,35.87
2018-02-18T10:45:16.593Z,36.20
2018-02-18T10:47:44.109Z,28.43
2018-02-18T10:50:11.664Z,32.30
2018-02-18T10:52:39.189Z,32.47
2018-02-18T10:55:06.764Z,31.93
2018-02-18T10:57:34.284Z,33.67
2018-02-18T11:00:01.844Z,30.73
2018-02-18T11:02:30.201Z,30.87
2018-02-18T11:04:57.752Z,33.60
2018-02-18T11:07:26.041Z,37.20
2018-02-18T11:09:53.607Z,37.43
2018-02-18T11:12:21.924Z,34.93
2018-02-18T11:14:50.332Z,28.33
2018-02-18T11:17:17.864Z,27.70
2018-02-18T11:19:46.156Z,35.40
2018-02-18T11:22:13.707Z,30.50
2018-02-18T11:24:41.232Z,24.80
2018-02-18T11:27:08.782Z,32.13
2018-02-18T11:29:36.305Z,32.43
2018-02-18T11:32:03.861Z,33.00
2018-02-18T11:34:31.409Z,36.20
2018-02-18T11:36:58.958Z,29.50
2018-02-18T11:39:27.272Z,29.73
2018-02-18T11:41:54.797Z,26.40
2018-02-18T11:44:22.357Z,27.93
2018-02-18T11:46:49.880Z,23.43
2018-02-18T11:49:17.445Z,22.47
2018-02-18T11:51:45.724Z,22.07
2018-02-18T11:54:14.000Z,25.27
2018-02-18T11:56:41.544Z,31.37
2018-02-18T11:59:09.061Z,29.47
2018-02-18T12:01:37.380Z,24.70
2018-02-18T12:04:04.902Z,24.90
2018-02-18T12:06:32.448Z,22.87
2018-02-18T12:08:59.969Z,30.17
2018-02-18T12:11:28.337Z,29.40
2018-02-18T12:13:55.881Z,31.57
2018-02-18T12:16:23.439Z,31.97
2018-02-18T12:18:50.968Z,32.80
2018-02-18T12:21:19.292Z,26.80
2018-02-18T12:23:46.816Z,36.43
2018-02-18T12:26:14.372Z,27.23
2018-02-18T12:28:41.905Z,41.20
2018-02-18T12:31:09.516Z,32.90
2018-02-18T12:33:37.045Z,26.20
2018-02-18T12:36:04.600Z,29.10
2018-02-18T12:38:32.113Z,20.27
2018-02-18T12:40:59.668Z,26.07
2018-02-18T12:43:27.200Z,19.30
2018-02-18T12:45:54.749Z,30.00
2018-02-18T12:48:22.266Z,30.50
2018-02-18T12:50:50.584Z,18.73
2018-02-18T12:53:18.100Z,23.37
2018-02-18T12:55:45.644Z,27.73
2018-02-18T12:58:13.170Z,19.93
2018-02-18T13:00:41.493Z,24.20
2018-02-18T13:03:09.042Z,24.80
2018-02-18T13:05:36.623Z,23.27
2018-02-18T13:08:04.132Z,21.47
2018-02-18T13:10:31.683Z,20.73
2018-02-18T13:12:59.237Z,21.10
2018-02-18T13:15:26.788Z,29.73
2018-02-18T13:17:55.073Z,28.00
2018-02-18T13:20:23.394Z,16.10
2018-02-18T13:22:51.829Z,17.87
2018-02-18T13:25:19.382Z,20.70
2018-02-18T13:27:46.944Z,17.60
2018-02-18T13:30:14.500Z,18.13
2018-02-18T13:32:42.068Z,20.53
2018-02-18T13:35:09.632Z,17.63
2018-02-18T13:37:37.156Z,17.97
2018-02-18T13:40:04.696Z,19.90
2018-02-18T13:42:32.262Z,18.53
2018-02-18T13:44:59.810Z,21.53
2018-02-18T13:47:28.093Z,18.77
2018-02-18T13:49:55.636Z,15.27
2018-02-18T13:52:23.151Z,18.80
2018-02-18T13:54:50.716Z,26.10
2018-02-18T13:57:19.031Z,20.33
2018-02-18T13:59:46.582Z,21.00
2018-02-18T14:02:14.869Z,22.10
2018-02-18T14:04:43.180Z,15.87
2018-02-18T14:07:10.696Z,13.47
2018-02-18T14:09:38.258Z,20.33
2018-02-18T14:12:05.787Z,23.60
2018-02-18T14:14:33.573Z,17.37
2018-02-18T14:17:01.601Z,16.73
2018-02-18T14:19:29.120Z,19.43
2018-02-18T14:21:56.675Z,22.77
2018-02-18T14:24:24.960Z,26.20
2018-02-18T14:26:53.272Z,25.43
2018-02-18T14:29:20.826Z,22.90
2018-02-18T14:31:49.108Z,25.23
2018-02-18T14:34:16.660Z,26.03
2018-02-18T14:36:44.199Z,27.77
2018-02-18T14:39:11.748Z,18.63
2018-02-18T14:41:51.187Z,26.67
2018-02-18T14:44:30.516Z,20.20
2018-02-18T14:47:09.835Z,20.07
2018-02-18T14:49:49.297Z,21.40
2018-02-18T14:52:28.653Z,68.23
2018-02-18T14:58:06.601Z,16.13
2018-02-18T15:00:34.144Z,19.90
2018-02-18T15:03:01.656Z,27.20
2018-02-18T15:05:29.214Z,28.77
2018-02-18T15:07:56.885Z,20.70
2018-02-18T15:10:24.401Z,22.57
2018-02-18T15:12:52.708Z,28.33
2018-02-18T15:15:20.290Z,29.37
2018-02-18T15:17:47.816Z,24.43
2018-02-18T15:20:15.369Z,29.53
2018-02-18T15:22:42.890Z,25.30
2018-02-18T15:25:11.223Z,34.87
2018-02-18T15:27:38.740Z,29.70
2018-02-18T15:30:07.057Z,25.40
2018-02-18T15:32:34.581Z,30.23
2018-02-18T15:35:02.132Z,31.80
2018-02-18T15:37:29.653Z,29.60
2018-02-18T15:39:57.985Z,29.47
2018-02-18T15:42:25.512Z,34.10
2018-02-18T15:44:53.796Z,31.83
2018-02-18T15:47:21.340Z,36.30
2018-02-18T15:49:48.860Z,31.73
2018-02-18T15:52:16.458Z,30.00
2018-02-18T15:54:43.981Z,28.53
2018-02-18T15:57:11.541Z,32.27
2018-02-18T15:59:39.078Z,35.90
2018-02-18T16:02:06.630Z,33.10
2018-02-18T16:04:34.144Z,39.33
2018-02-18T16:07:01.712Z,27.80
2018-02-18T16:09:29.260Z,32.30
2018-02-18T16:11:56.778Z,33.83
2018-02-18T16:14:24.356Z,37.03
2018-02-18T16:16:51.874Z,37.47
2018-02-18T16:19:19.433Z,42.93
2018-02-18T16:21:46.956Z,40.17
2018-02-18T16:24:14.567Z,34.40
2018-02-18T16:26:42.854Z,35.90
2018-02-18T16:29:11.147Z,38.87
2018-02-18T16:31:39.463Z,33.57
2018-02-18T16:34:06.989Z,37.20
2018-02-18T16:36:34.554Z,34.70
2018-02-18T16:39:02.861Z,31.77
2018-02-18T16:41:31.174Z,37.87
2018-02-18T16:43:58.687Z,33.57
2018-02-18T16:46:26.240Z,35.37
2018-02-18T16:48:53.756Z,34.57
2018-02-18T16:51:21.373Z,34.50
2018-02-18T16:53:48.888Z,36.80
2018-02-18T16:56:16.432Z,37.20
2018-02-18T16:58:43.948Z,35.60
2018-02-18T17:01:11.497Z,32.73
2018-02-18T17:03:39.041Z,34.27
2018-02-18T17:06:06.597Z,37.80
2018-02-18T17:08:34.144Z,36.87
2018-02-18T17:11:02.432Z,38.33
2018-02-18T17:13:29.984Z,30.40
2018-02-18T17:15:57.496Z,32.47
2018-02-18T17:18:25.061Z,37.50
2018-02-18T17:20:52.606Z,36.10
2018-02-18T17:23:20.136Z,36.60
2018-02-18T17:25:47.693Z,49.03
2018-02-18T17:28:15.224Z,45.73
2018-02-18T17:30:42.776Z,42.67
2018-02-18T17:33:10.298Z,33.87
2018-02-18T17:35:37.851Z,46.30
2018-02-18T17:38:06.140Z,42.13
2018-02-18T17:40:33.692Z,45.43
2018-02-18T17:43:01.257Z,41.87
2018-02-18T17:45:29.573Z,38.93
2018-02-18T17:47:57.096Z,46.20
2018-02-18T17:50:24.651Z,44.20
2018-02-18T17:52:52.164Z,35.77
2018-02-18T17:55:19.717Z,50.27
2018-02-18T17:57:47.311Z,32.50
2018-02-18T18:00:14.865Z,36.73
2018-02-18T18:02:42.380Z,38.07
2018-02-18T18:05:10.706Z,41.60
2018-02-18T18:07:38.586Z,47.33
2018-02-18T18:10:06.109Z,42.67
2018-02-18T18:12:33.640Z,38.20
2018-02-18T18:15:01.205Z,41.23
2018-02-18T18:17:28.719Z,46.83
2018-02-18T18:19:56.269Z,43.63
2018-02-18T18:22:23.793Z,45.53
2018-02-18T18:24:52.121Z,42.63
2018-02-18T18:27:19.677Z,42.27
2018-02-18T18:29:47.202Z,44.17
2018-02-18T18:32:14.754Z,41.47
2018-02-18T18:34:42.272Z,53.10
2018-02-18T18:37:09.836Z,49.67
2018-02-18T18:39:38.148Z,43.93
2018-02-18T18:42:05.693Z,50.00
2018-02-18T18:44:33.249Z,56.53
2018-02-18T18:47:01.094Z,51.03
2018-02-18T18:49:28.683Z,50.60
2018-02-18T18:51:56.235Z,60.30
2018-02-18T18:54:23.813Z,46.37
2018-02-18T18:56:51.336Z,60.80
2018-02-18T18:59:18.862Z,58.17
2018-02-18T19:01:46.470Z,48.33
2018-02-18T19:04:13.993Z,48.00
2018-02-18T19:06:41.548Z,54.67
2018-02-18T19:09:09.100Z,53.70
2018-02-18T19:11:40.933Z,50.27
2018-02-18T19:14:08.490Z,56.57
2018-02-18T19:16:38.696Z,50.77
2018-02-18T19:19:09.600Z,62.23
2018-02-18T19:21:37.287Z,55.00
2018-02-18T19:24:04.929Z,67.93
2018-02-18T19:26:32.470Z,57.37
2018-02-18T19:29:00.954Z,60.43
2018-02-18T19:34:16.707Z,49.47
2018-02-18T19:36:44.256Z,44.10
2018-02-18T19:39:12.569Z,48.70
2018-02-18T19:41:40.129Z,44.27
2018-02-18T19:44:08.412Z,38.73
2018-02-18T19:46:36.736Z,40.47
2018-02-18T19:49:04.250Z,39.97
2018-02-18T19:51:31.798Z,45.97
2018-02-18T19:53:59.364Z,38.20
2018-02-18T19:56:26.908Z,43.53
2018-02-18T19:58:54.429Z,43.10
2018-02-18T20:01:21.980Z,40.80
2018-02-18T20:03:49.623Z,35.97
2018-02-18T20:06:17.224Z,46.43
2018-02-18T20:08:44.744Z,45.73
2018-02-18T20:11:12.276Z,50.60
2018-02-18T20:13:39.848Z,41.50
2018-02-18T20:16:07.364Z,34.80
2018-02-18T20:18:35.117Z,47.43
2018-02-18T20:21:02.666Z,38.77
2018-02-18T20:23:30.238Z,37.37
2018-02-18T20:25:57.800Z,45.13
2018-02-18T20:28:25.366Z,36.93
2018-02-18T20:30:52.981Z,39.70
2018-02-18T20:33:20.548Z,37.07
2018-02-18T20:35:48.100Z,49.70
2018-02-18T20:38:15.621Z,46.93
2018-02-18T20:40:43.177Z,49.43
2018-02-18T20:43:10.749Z,52.23
2018-02-18T20:45:38.360Z,45.60
2018-02-18T20:48:05.887Z,64.73
2018-02-18T20:50:33.400Z,46.00
2018-02-18T20:53:00.960Z,48.60
2018-02-18T20:55:28.501Z,44.10
2018-02-18T20:57:56.044Z,55.57
2018-02-18T21:00:23.572Z,54.13
2018-02-18T21:02:51.889Z,51.27
2018-02-18T21:05:19.420Z,50.33
2018-02-18T21:07:46.977Z,53.10
2018-02-18T21:10:14.537Z,45.37
2018-02-18T21:12:42.059Z,44.70
2018-02-18T21:15:09.605Z,47.57
2018-02-18T21:17:37.165Z,56.40
2018-02-18T21:20:04.784Z,51.43
2018-02-18T21:22:32.314Z,53.80
2018-02-18T21:24:59.888Z,49.90
2018-02-18T21:27:27.410Z,63.70
2018-02-18T21:29:54.943Z,55.83
2018-02-18T21:32:22.524Z,56.63
2018-02-18T21:34:50.039Z,55.23
2018-02-18T21:37:17.598Z,58.53
2018-02-18T21:39:45.131Z,57.53
2018-02-18T21:42:12.699Z,61.50
2018-02-18T21:44:40.237Z,64.90
2018-02-18T21:47:07.810Z,59.77
2018-02-18T21:49:35.332Z,73.33
2018-02-18T21:52:03.620Z,56.23
2018-02-18T21:54:31.173Z,76.30
2018-02-18T21:56:58.744Z,61.50
2018-02-18T21:59:26.276Z,49.33
2018-02-18T22:01:53.848Z,57.67
2018-02-18T22:04:21.368Z,56.70
2018-02-18T22:06:48.923Z,56.50
2018-02-18T22:09:16.466Z,57.93
2018-02-18T22:11:43.981Z,56.17
2018-02-18T22:14:11.540Z,61.33
2018-02-18T22:16:39.065Z,51.33
2018-02-18T22:19:06.622Z,57.57
2018-02-18T22:21:34.140Z,70.53
2018-02-18T22:24:01.692Z,58.43
2018-02-18T22:26:29.214Z,57.67
2018-02-18T22:28:56.824Z,60.93
2018-02-18T22:31:24.360Z,67.23
2018-02-18T22:33:51.918Z,61.13
2018-02-18T22:36:19.456Z,66.83
2018-02-18T22:38:47.041Z,64.03
2018-02-18T22:41:14.592Z,58.97
2018-02-18T22:43:42.153Z,64.30
2018-02-18T22:46:09.683Z,54.43
2018-02-18T22:48:37.237Z,45.10
2018-02-18T22:51:04.768Z,54.93
2018-02-18T22:53:33.087Z,51.77
2018-02-18T22:56:00.621Z,52.80
2018-02-18T22:58:28.945Z,53.87
2018-02-18T23:00:56.456Z,58.37
2018-02-18T23:03:24.003Z,54.33
2018-02-18T23:05:52.313Z,52.10
2018-02-18T23:08:19.875Z,55.13
2018-02-18T23:10:47.440Z,61.83
2018-02-18T23:13:14.974Z,55.50
2018-02-18T23:15:42.504Z,57.60
2018-02-18T23:18:10.068Z,61.40
2018-02-18T23:20:49.556Z,56.43
2018-02-18T23:23:17.880Z,57.63
2018-02-18T23:25:45.414Z,56.00
2018-02-18T23:28:13.744Z,53.33
2018-02-18T23:30:41.269Z,52.93
2018-02-18T23:33:08.821Z,58.93
2018-02-18T23:35:36.344Z,52.97
2018-02-18T23:38:03.944Z,57.47
2018-02-18T23:40:31.481Z,61.23
2018-02-18T23:42:59.804Z,50.07
2018-02-18T23:45:27.328Z,55.53
2018-02-18T23:47:54.889Z,48.23
2018-02-18T23:50:22.412Z,61.47
2018-02-18T23:52:49.936Z,62.03
2018-02-18T23:55:17.496Z,68.90
2018-02-18T23:57:45.034Z,65.83
